Terminal Aerodrome Forecast
Issued by NWS Atlanta, GA

Home | Current Version | Previous Version | Text Only | Print | Product List | Glossary On
Versions: 1 2 3 4 5 6 7 8 9 10 11 12 13 14
070
FTUS42 KFFC 222329 CCA
TAFMCN
TAF COR
KMCN 222329Z 2300/2324 09009KT P6SM BKN015
     FM230700 12007KT P6SM OVC006
     FM231000 14008KT P6SM VCSH OVC012
     FM231400 15009KT 5SM SHRA OVC012 PROB30 2314/2318 VRB10G20KT
      3SM TSRA BKN010CB
     FM231800 21009KT P6SM SHRA OVC020=

USA.gov is the U.S. government's official web portal to all federal, state and local government web resources and services.